sensor_id;sensor_type;location;lat;lon;timestamp;temperature;humidity
14517;DHT22;7344;50.864;4.362;2022-07-09T00:01:49;19.20;1.00
14517;DHT22;7344;50.864;4.362;2022-07-09T00:04:14;19.30;1.00
14517;DHT22;7344;50.864;4.362;2022-07-09T00:06:40;19.20;1.00
14517;DHT22;7344;50.864;4.362;2022-07-09T00:09:06;19.20;1.00
14517;DHT22;7344;50.864;4.362;2022-07-09T00:11:31;19.10;1.00
14517;DHT22;7344;50.864;4.362;2022-07-09T00:13:57;19.10;1.00
14517;DHT22;7344;50.864;4.362;2022-07-09T00:16:23;19.10;1.00
14517;DHT22;7344;50.864;4.362;2022-07-09T00:18:48;19.10;1.00
14517;DHT22;7344;50.864;4.362;2022-07-09T00:21:14;19.10;1.00
14517;DHT22;7344;50.864;4.362;2022-07-09T00:23:39;19.10;1.00
14517;DHT22;7344;50.864;4.362;2022-07-09T00:26:05;19.10;1.00
14517;DHT22;7344;50.864;4.362;2022-07-09T00:28:31;19.10;1.00
14517;DHT22;7344;50.864;4.362;2022-07-09T00:30:56;19.10;1.00
14517;DHT22;7344;50.864;4.362;2022-07-09T00:33:22;19.20;1.00
14517;DHT22;7344;50.864;4.362;2022-07-09T00:35:47;19.10;1.00
14517;DHT22;7344;50.864;4.362;2022-07-09T00:38:13;19.10;1.00
14517;DHT22;7344;50.864;4.362;2022-07-09T00:40:38;19.10;1.00
14517;DHT22;7344;50.864;4.362;2022-07-09T00:43:15;19.10;1.00
14517;DHT22;7344;50.864;4.362;2022-07-09T00:45:40;19.10;1.00
14517;DHT22;7344;50.864;4.362;2022-07-09T00:48:06;19.00;1.00
14517;DHT22;7344;50.864;4.362;2022-07-09T00:50:31;19.00;1.00
14517;DHT22;7344;50.864;4.362;2022-07-09T00:52:57;19.10;1.00
14517;DHT22;7344;50.864;4.362;2022-07-09T00:55:23;19.10;1.00
14517;DHT22;7344;50.864;4.362;2022-07-09T00:57:49;19.10;1.00
14517;DHT22;7344;50.864;4.362;2022-07-09T01:00:14;19.20;1.00
14517;DHT22;7344;50.864;4.362;2022-07-09T01:02:41;19.20;1.00
14517;DHT22;7344;50.864;4.362;2022-07-09T01:05:07;19.20;1.00
14517;DHT22;7344;50.864;4.362;2022-07-09T01:07:33;19.20;1.00
14517;DHT22;7344;50.864;4.362;2022-07-09T01:09:58;19.10;1.00
14517;DHT22;7344;50.864;4.362;2022-07-09T01:12:24;19.20;1.00
14517;DHT22;7344;50.864;4.362;2022-07-09T01:14:50;19.20;1.00
14517;DHT22;7344;50.864;4.362;2022-07-09T01:17:16;19.10;1.00
14517;DHT22;7344;50.864;4.362;2022-07-09T01:19:42;19.10;1.00
14517;DHT22;7344;50.864;4.362;2022-07-09T01:22:08;19.10;1.00
14517;DHT22;7344;50.864;4.362;2022-07-09T01:24:34;19.10;1.00
14517;DHT22;7344;50.864;4.362;2022-07-09T01:27:01;19.10;1.00
14517;DHT22;7344;50.864;4.362;2022-07-09T01:29:27;19.10;1.00
14517;DHT22;7344;50.864;4.362;2022-07-09T01:31:52;19.20;1.00
14517;DHT22;7344;50.864;4.362;2022-07-09T01:34:18;19.20;1.00
14517;DHT22;7344;50.864;4.362;2022-07-09T01:36:44;19.30;1.00
14517;DHT22;7344;50.864;4.362;2022-07-09T01:39:09;19.10;1.00
14517;DHT22;7344;50.864;4.362;2022-07-09T01:41:35;19.20;1.00
14517;DHT22;7344;50.864;4.362;2022-07-09T01:44:00;19.20;1.00
14517;DHT22;7344;50.864;4.362;2022-07-09T01:46:26;19.10;1.00
14517;DHT22;7344;50.864;4.362;2022-07-09T01:48:52;18.90;1.00
14517;DHT22;7344;50.864;4.362;2022-07-09T01:51:17;18.60;23.10
14517;DHT22;7344;50.864;4.362;2022-07-09T01:53:43;18.30;38.90
14517;DHT22;7344;50.864;4.362;2022-07-09T01:56:10;18.10;48.30
14517;DHT22;7344;50.864;4.362;2022-07-09T01:58:37;18.00;54.40
14517;DHT22;7344;50.864;4.362;2022-07-09T02:01:03;18.00;55.70
14517;DHT22;7344;50.864;4.362;2022-07-09T02:03:29;18.00;55.90
14517;DHT22;7344;50.864;4.362;2022-07-09T02:05:55;18.00;56.20
14517;DHT22;7344;50.864;4.362;2022-07-09T02:08:22;17.90;59.30
14517;DHT22;7344;50.864;4.362;2022-07-09T02:10:48;17.90;63.70
14517;DHT22;7344;50.864;4.362;2022-07-09T02:13:14;17.90;67.80
14517;DHT22;7344;50.864;4.362;2022-07-09T02:15:39;18.00;60.90
14517;DHT22;7344;50.864;4.362;2022-07-09T02:18:05;18.10;56.00
14517;DHT22;7344;50.864;4.362;2022-07-09T02:20:31;18.20;52.50
14517;DHT22;7344;50.864;4.362;2022-07-09T02:22:58;18.20;48.30
14517;DHT22;7344;50.864;4.362;2022-07-09T02:25:23;18.30;46.20
14517;DHT22;7344;50.864;4.362;2022-07-09T02:27:49;18.30;44.50
14517;DHT22;7344;50.864;4.362;2022-07-09T02:30:14;18.20;44.50
14517;DHT22;7344;50.864;4.362;2022-07-09T02:32:40;18.20;49.50
14517;DHT22;7344;50.864;4.362;2022-07-09T02:35:06;18.10;53.60
14517;DHT22;7344;50.864;4.362;2022-07-09T02:37:32;18.20;55.80
14517;DHT22;7344;50.864;4.362;2022-07-09T02:39:58;18.20;54.80
14517;DHT22;7344;50.864;4.362;2022-07-09T02:42:23;18.30;51.80
14517;DHT22;7344;50.864;4.362;2022-07-09T02:44:49;18.40;51.90
14517;DHT22;7344;50.864;4.362;2022-07-09T02:47:15;18.50;50.10
14517;DHT22;7344;50.864;4.362;2022-07-09T02:49:41;18.50;47.90
14517;DHT22;7344;50.864;4.362;2022-07-09T02:52:06;18.50;49.50
14517;DHT22;7344;50.864;4.362;2022-07-09T02:54:32;18.50;52.60
14517;DHT22;7344;50.864;4.362;2022-07-09T02:56:59;18.50;53.80
14517;DHT22;7344;50.864;4.362;2022-07-09T02:59:25;18.50;54.90
14517;DHT22;7344;50.864;4.362;2022-07-09T03:01:51;18.50;60.30
14517;DHT22;7344;50.864;4.362;2022-07-09T03:04:16;18.60;61.30
14517;DHT22;7344;50.864;4.362;2022-07-09T03:06:42;18.60;59.10
14517;DHT22;7344;50.864;4.362;2022-07-09T03:09:08;18.70;59.10
14517;DHT22;7344;50.864;4.362;2022-07-09T03:11:33;18.70;60.70
14517;DHT22;7344;50.864;4.362;2022-07-09T03:13:59;18.80;57.60
14517;DHT22;7344;50.864;4.362;2022-07-09T03:16:25;18.80;58.30
14517;DHT22;7344;50.864;4.362;2022-07-09T03:18:50;18.70;64.90
14517;DHT22;7344;50.864;4.362;2022-07-09T03:21:16;18.80;62.50
14517;DHT22;7344;50.864;4.362;2022-07-09T03:23:41;18.80;60.80
14517;DHT22;7344;50.864;4.362;2022-07-09T03:26:07;18.90;59.70
14517;DHT22;7344;50.864;4.362;2022-07-09T03:28:33;18.90;59.60
14517;DHT22;7344;50.864;4.362;2022-07-09T03:31:00;18.90;58.60
14517;DHT22;7344;50.864;4.362;2022-07-09T03:33:26;18.70;71.90
14517;DHT22;7344;50.864;4.362;2022-07-09T03:35:54;18.70;74.00
14517;DHT22;7344;50.864;4.362;2022-07-09T03:38:20;18.70;73.40
14517;DHT22;7344;50.864;4.362;2022-07-09T03:40:46;18.70;75.00
14517;DHT22;7344;50.864;4.362;2022-07-09T03:43:11;18.70;74.60
14517;DHT22;7344;50.864;4.362;2022-07-09T03:45:37;18.80;72.80
14517;DHT22;7344;50.864;4.362;2022-07-09T03:48:03;18.80;70.10
14517;DHT22;7344;50.864;4.362;2022-07-09T03:50:29;18.80;70.30
14517;DHT22;7344;50.864;4.362;2022-07-09T03:52:54;18.90;69.60
14517;DHT22;7344;50.864;4.362;2022-07-09T03:55:20;18.80;71.20
14517;DHT22;7344;50.864;4.362;2022-07-09T03:57:46;18.80;78.70
14517;DHT22;7344;50.864;4.362;2022-07-09T04:00:11;18.90;71.40
14517;DHT22;7344;50.864;4.362;2022-07-09T04:02:37;19.00;67.30
14517;DHT22;7344;50.864;4.362;2022-07-09T04:05:03;19.10;63.50
14517;DHT22;7344;50.864;4.362;2022-07-09T04:07:29;19.20;56.60
14517;DHT22;7344;50.864;4.362;2022-07-09T04:09:55;19.30;47.60
14517;DHT22;7344;50.864;4.362;2022-07-09T04:12:21;19.30;41.20
14517;DHT22;7344;50.864;4.362;2022-07-09T04:14:47;19.30;24.60
14517;DHT22;7344;50.864;4.362;2022-07-09T04:17:12;19.30;23.30
14517;DHT22;7344;50.864;4.362;2022-07-09T04:19:38;19.30;19.90
14517;DHT22;7344;50.864;4.362;2022-07-09T04:22:05;19.50;17.70
14517;DHT22;7344;50.864;4.362;2022-07-09T04:24:30;19.60;7.30
14517;DHT22;7344;50.864;4.362;2022-07-09T04:26:56;19.60;5.30
14517;DHT22;7344;50.864;4.362;2022-07-09T04:29:22;19.70;2.10
14517;DHT22;7344;50.864;4.362;2022-07-09T04:31:48;19.70;5.80
14517;DHT22;7344;50.864;4.362;2022-07-09T04:34:13;19.70;8.90
14517;DHT22;7344;50.864;4.362;2022-07-09T04:36:39;19.80;2.00
14517;DHT22;7344;50.864;4.362;2022-07-09T04:39:05;19.90;1.00
14517;DHT22;7344;50.864;4.362;2022-07-09T04:41:31;20.10;1.00
14517;DHT22;7344;50.864;4.362;2022-07-09T04:43:56;20.20;1.00
14517;DHT22;7344;50.864;4.362;2022-07-09T04:46:22;20.40;1.00
14517;DHT22;7344;50.864;4.362;2022-07-09T04:48:48;20.70;1.00
14517;DHT22;7344;50.864;4.362;2022-07-09T04:51:14;21.40;1.00
14517;DHT22;7344;50.864;4.362;2022-07-09T04:53:40;21.80;1.00
14517;DHT22;7344;50.864;4.362;2022-07-09T04:56:06;21.90;1.00
14517;DHT22;7344;50.864;4.362;2022-07-09T04:58:32;22.30;1.00
14517;DHT22;7344;50.864;4.362;2022-07-09T05:00:58;22.80;1.00
14517;DHT22;7344;50.864;4.362;2022-07-09T05:03:24;23.30;99.90
14517;DHT22;7344;50.864;4.362;2022-07-09T05:05:51;23.40;99.90
14517;DHT22;7344;50.864;4.362;2022-07-09T05:08:18;23.80;1.00
14517;DHT22;7344;50.864;4.362;2022-07-09T05:10:44;24.00;1.00
14517;DHT22;7344;50.864;4.362;2022-07-09T05:13:09;24.40;99.90
14517;DHT22;7344;50.864;4.362;2022-07-09T05:15:35;24.40;1.00
14517;DHT22;7344;50.864;4.362;2022-07-09T05:18:00;24.80;1.00
14517;DHT22;7344;50.864;4.362;2022-07-09T05:20:26;25.80;1.00
14517;DHT22;7344;50.864;4.362;2022-07-09T05:22:52;27.00;99.90
14517;DHT22;7344;50.864;4.362;2022-07-09T05:25:17;27.10;1.00
14517;DHT22;7344;50.864;4.362;2022-07-09T05:27:45;27.80;1.00
14517;DHT22;7344;50.864;4.362;2022-07-09T05:30:12;28.20;1.00
14517;DHT22;7344;50.864;4.362;2022-07-09T05:32:40;28.20;1.00
14517;DHT22;7344;50.864;4.362;2022-07-09T05:35:06;28.40;1.00
14517;DHT22;7344;50.864;4.362;2022-07-09T05:37:32;28.70;1.00
14517;DHT22;7344;50.864;4.362;2022-07-09T05:39:58;29.60;99.90
14517;DHT22;7344;50.864;4.362;2022-07-09T05:42:23;30.00;99.90
14517;DHT22;7344;50.864;4.362;2022-07-09T05:44:49;29.60;99.90
14517;DHT22;7344;50.864;4.362;2022-07-09T05:47:15;28.30;99.90
14517;DHT22;7344;50.864;4.362;2022-07-09T05:49:41;28.30;99.90
14517;DHT22;7344;50.864;4.362;2022-07-09T05:52:07;28.00;1.00
14517;DHT22;7344;50.864;4.362;2022-07-09T05:54:32;29.10;99.90
14517;DHT22;7344;50.864;4.362;2022-07-09T05:56:58;28.90;99.90
14517;DHT22;7344;50.864;4.362;2022-07-09T05:59:23;30.30;99.90
14517;DHT22;7344;50.864;4.362;2022-07-09T06:01:49;31.60;99.90
14517;DHT22;7344;50.864;4.362;2022-07-09T06:04:15;32.60;99.90
14517;DHT22;7344;50.864;4.362;2022-07-09T06:06:40;33.70;99.90
14517;DHT22;7344;50.864;4.362;2022-07-09T06:09:06;33.70;99.90
14517;DHT22;7344;50.864;4.362;2022-07-09T06:11:32;33.40;99.90
14517;DHT22;7344;50.864;4.362;2022-07-09T06:13:58;33.40;99.90
14517;DHT22;7344;50.864;4.362;2022-07-09T06:16:23;34.00;99.90
14517;DHT22;7344;50.864;4.362;2022-07-09T06:18:49;34.70;99.90
14517;DHT22;7344;50.864;4.362;2022-07-09T06:21:14;34.60;99.90
14517;DHT22;7344;50.864;4.362;2022-07-09T06:23:40;34.30;99.90
14517;DHT22;7344;50.864;4.362;2022-07-09T06:26:06;35.10;99.90
14517;DHT22;7344;50.864;4.362;2022-07-09T06:28:31;35.20;99.90
14517;DHT22;7344;50.864;4.362;2022-07-09T06:30:57;35.30;94.40
14517;DHT22;7344;50.864;4.362;2022-07-09T06:33:23;35.20;92.50
14517;DHT22;7344;50.864;4.362;2022-07-09T06:35:48;36.30;87.10
14517;DHT22;7344;50.864;4.362;2022-07-09T06:38:14;36.40;71.00
14517;DHT22;7344;50.864;4.362;2022-07-09T06:40:40;36.40;64.10
14517;DHT22;7344;50.864;4.362;2022-07-09T06:43:05;36.40;59.90
14517;DHT22;7344;50.864;4.362;2022-07-09T06:45:31;35.60;61.10
14517;DHT22;7344;50.864;4.362;2022-07-09T06:47:56;36.30;56.70
14517;DHT22;7344;50.864;4.362;2022-07-09T06:50:22;36.60;53.40
14517;DHT22;7344;50.864;4.362;2022-07-09T06:52:47;36.50;48.40
14517;DHT22;7344;50.864;4.362;2022-07-09T06:55:13;36.50;47.00
14517;DHT22;7344;50.864;4.362;2022-07-09T06:57:39;35.60;42.50
14517;DHT22;7344;50.864;4.362;2022-07-09T07:00:05;36.00;45.70
14517;DHT22;7344;50.864;4.362;2022-07-09T07:02:31;35.50;44.40
14517;DHT22;7344;50.864;4.362;2022-07-09T07:04:57;36.10;44.90
14517;DHT22;7344;50.864;4.362;2022-07-09T07:07:22;35.90;39.80
14517;DHT22;7344;50.864;4.362;2022-07-09T07:09:48;35.60;38.10
14517;DHT22;7344;50.864;4.362;2022-07-09T07:12:14;34.60;47.80
14517;DHT22;7344;50.864;4.362;2022-07-09T07:14:40;33.90;49.10
14517;DHT22;7344;50.864;4.362;2022-07-09T07:17:05;34.20;52.40
14517;DHT22;7344;50.864;4.362;2022-07-09T07:19:31;33.60;52.30
14517;DHT22;7344;50.864;4.362;2022-07-09T07:21:57;32.90;59.50
14517;DHT22;7344;50.864;4.362;2022-07-09T07:24:23;32.20;66.20
14517;DHT22;7344;50.864;4.362;2022-07-09T07:26:48;32.90;76.00
14517;DHT22;7344;50.864;4.362;2022-07-09T07:29:14;33.80;68.10
14517;DHT22;7344;50.864;4.362;2022-07-09T07:31:39;34.30;59.50
14517;DHT22;7344;50.864;4.362;2022-07-09T07:34:05;35.70;57.50
14517;DHT22;7344;50.864;4.362;2022-07-09T07:36:31;36.90;42.60
14517;DHT22;7344;50.864;4.362;2022-07-09T07:38:57;36.20;37.50
14517;DHT22;7344;50.864;4.362;2022-07-09T07:41:22;35.70;38.20
14517;DHT22;7344;50.864;4.362;2022-07-09T07:43:48;35.90;36.40
14517;DHT22;7344;50.864;4.362;2022-07-09T07:46:14;36.00;33.60
14517;DHT22;7344;50.864;4.362;2022-07-09T07:48:40;36.50;32.10
14517;DHT22;7344;50.864;4.362;2022-07-09T07:51:09;36.60;31.60
14517;DHT22;7344;50.864;4.362;2022-07-09T07:53:34;36.50;28.10
14517;DHT22;7344;50.864;4.362;2022-07-09T07:56:02;35.60;29.20
14517;DHT22;7344;50.864;4.362;2022-07-09T07:58:27;36.20;49.90
14517;DHT22;7344;50.864;4.362;2022-07-09T08:00:53;36.30;25.90
14517;DHT22;7344;50.864;4.362;2022-07-09T08:03:19;35.40;28.90
14517;DHT22;7344;50.864;4.362;2022-07-09T08:05:45;36.30;29.80
14517;DHT22;7344;50.864;4.362;2022-07-09T08:08:12;37.20;23.50
14517;DHT22;7344;50.864;4.362;2022-07-09T08:10:37;38.20;17.80
14517;DHT22;7344;50.864;4.362;2022-07-09T08:13:03;39.00;13.50
14517;DHT22;7344;50.864;4.362;2022-07-09T08:15:29;38.50;9.60
14517;DHT22;7344;50.864;4.362;2022-07-09T08:17:54;38.80;8.90
14517;DHT22;7344;50.864;4.362;2022-07-09T08:20:20;38.40;4.10
14517;DHT22;7344;50.864;4.362;2022-07-09T08:22:46;37.80;6.00
14517;DHT22;7344;50.864;4.362;2022-07-09T08:25:12;37.30;8.50
14517;DHT22;7344;50.864;4.362;2022-07-09T08:27:39;38.10;7.20
14517;DHT22;7344;50.864;4.362;2022-07-09T08:30:05;38.30;5.30
14517;DHT22;7344;50.864;4.362;2022-07-09T08:32:31;38.90;3.10
14517;DHT22;7344;50.864;4.362;2022-07-09T08:34:56;39.70;1.00
14517;DHT22;7344;50.864;4.362;2022-07-09T08:37:22;40.20;1.00
14517;DHT22;7344;50.864;4.362;2022-07-09T08:39:47;39.60;1.00
14517;DHT22;7344;50.864;4.362;2022-07-09T08:42:13;39.00;1.00
14517;DHT22;7344;50.864;4.362;2022-07-09T08:44:40;39.10;1.00
14517;DHT22;7344;50.864;4.362;2022-07-09T08:47:12;38.70;1.00
14517;DHT22;7344;50.864;4.362;2022-07-09T08:49:39;39.10;1.00
14517;DHT22;7344;50.864;4.362;2022-07-09T08:52:06;38.60;1.00
14517;DHT22;7344;50.864;4.362;2022-07-09T08:54:32;37.90;1.00
14517;DHT22;7344;50.864;4.362;2022-07-09T08:57:05;38.30;1.00
14517;DHT22;7344;50.864;4.362;2022-07-09T08:59:32;37.80;1.00
14517;DHT22;7344;50.864;4.362;2022-07-09T09:02:03;38.00;1.00
14517;DHT22;7344;50.864;4.362;2022-07-09T09:04:30;38.40;1.00
14517;DHT22;7344;50.864;4.362;2022-07-09T09:06:55;38.70;1.00
14517;DHT22;7344;50.864;4.362;2022-07-09T09:09:21;38.80;1.00
14517;DHT22;7344;50.864;4.362;2022-07-09T09:11:50;38.80;1.00
14517;DHT22;7344;50.864;4.362;2022-07-09T09:14:20;38.90;1.00
14517;DHT22;7344;50.864;4.362;2022-07-09T09:16:47;38.10;1.00
14517;DHT22;7344;50.864;4.362;2022-07-09T09:19:13;37.80;1.00
14517;DHT22;7344;50.864;4.362;2022-07-09T09:21:39;37.50;1.00
14517;DHT22;7344;50.864;4.362;2022-07-09T09:24:05;36.80;1.00
14517;DHT22;7344;50.864;4.362;2022-07-09T09:26:31;37.30;1.00
14517;DHT22;7344;50.864;4.362;2022-07-09T09:29:00;37.60;1.00
14517;DHT22;7344;50.864;4.362;2022-07-09T09:31:33;37.20;1.00
14517;DHT22;7344;50.864;4.362;2022-07-09T09:36:52;36.80;1.00
14517;DHT22;7344;50.864;4.362;2022-07-09T09:39:23;36.60;1.00
14517;DHT22;7344;50.864;4.362;2022-07-09T09:41:59;36.80;1.10
14517;DHT22;7344;50.864;4.362;2022-07-09T09:44:31;36.10;4.40
14517;DHT22;7344;50.864;4.362;2022-07-09T09:47:04;35.90;5.20
14517;DHT22;7344;50.864;4.362;2022-07-09T09:49:30;36.20;5.70
14517;DHT22;7344;50.864;4.362;2022-07-09T09:52:09;36.60;4.20
14517;DHT22;7344;50.864;4.362;2022-07-09T09:54:37;35.80;8.10
14517;DHT22;7344;50.864;4.362;2022-07-09T09:57:10;35.90;10.30
14517;DHT22;7344;50.864;4.362;2022-07-09T09:59:40;35.20;13.50
14517;DHT22;7344;50.864;4.362;2022-07-09T10:02:07;34.30;18.50
14517;DHT22;7344;50.864;4.362;2022-07-09T10:04:35;32.60;30.20
14517;DHT22;7344;50.864;4.362;2022-07-09T10:07:01;32.50;54.10
14517;DHT22;7344;50.864;4.362;2022-07-09T10:09:27;33.00;58.60
14517;DHT22;7344;50.864;4.362;2022-07-09T10:11:52;32.50;70.50
14517;DHT22;7344;50.864;4.362;2022-07-09T10:14:30;32.50;81.60
14517;DHT22;7344;50.864;4.362;2022-07-09T10:16:56;32.60;89.60
14517;DHT22;7344;50.864;4.362;2022-07-09T10:19:33;32.30;94.80
14517;DHT22;7344;50.864;4.362;2022-07-09T10:22:00;33.30;92.70
14517;DHT22;7344;50.864;4.362;2022-07-09T10:24:30;34.00;76.00
14517;DHT22;7344;50.864;4.362;2022-07-09T10:27:13;33.40;72.50
14517;DHT22;7344;50.864;4.362;2022-07-09T10:29:55;33.20;83.40
14517;DHT22;7344;50.864;4.362;2022-07-09T10:32:27;32.80;95.10
14517;DHT22;7344;50.864;4.362;2022-07-09T10:34:58;32.00;99.90
14517;DHT22;7344;50.864;4.362;2022-07-09T10:37:44;31.60;99.90
14517;DHT22;7344;50.864;4.362;2022-07-09T10:40:17;31.30;99.90
14517;DHT22;7344;50.864;4.362;2022-07-09T10:42:45;31.90;99.90
14517;DHT22;7344;50.864;4.362;2022-07-09T10:48:05;31.80;99.90
14517;DHT22;7344;50.864;4.362;2022-07-09T10:50:35;32.20;99.90
14517;DHT22;7344;50.864;4.362;2022-07-09T10:53:00;32.60;99.90
14517;DHT22;7344;50.864;4.362;2022-07-09T10:55:28;33.10;99.90
14517;DHT22;7344;50.864;4.362;2022-07-09T10:57:55;33.40;99.90
14517;DHT22;7344;50.864;4.362;2022-07-09T11:00:25;32.90;99.90
14517;DHT22;7344;50.864;4.362;2022-07-09T11:03:02;32.10;99.90
14517;DHT22;7344;50.864;4.362;2022-07-09T11:05:33;32.00;99.90
14517;DHT22;7344;50.864;4.362;2022-07-09T11:08:07;31.60;99.90
14517;DHT22;7344;50.864;4.362;2022-07-09T11:10:37;31.30;99.90
14517;DHT22;7344;50.864;4.362;2022-07-09T11:13:05;31.20;99.90
14517;DHT22;7344;50.864;4.362;2022-07-09T11:15:33;31.50;99.90
14517;DHT22;7344;50.864;4.362;2022-07-09T11:20:51;30.80;99.90
14517;DHT22;7344;50.864;4.362;2022-07-09T11:23:16;30.50;99.90
14517;DHT22;7344;50.864;4.362;2022-07-09T11:25:43;31.10;99.90
14517;DHT22;7344;50.864;4.362;2022-07-09T11:28:21;30.80;99.90
14517;DHT22;7344;50.864;4.362;2022-07-09T11:30:58;31.10;99.90
14517;DHT22;7344;50.864;4.362;2022-07-09T11:33:24;30.70;99.90
14517;DHT22;7344;50.864;4.362;2022-07-09T11:35:50;29.50;99.90
14517;DHT22;7344;50.864;4.362;2022-07-09T11:38:15;29.20;99.90
14517;DHT22;7344;50.864;4.362;2022-07-09T11:40:41;29.40;99.90
14517;DHT22;7344;50.864;4.362;2022-07-09T11:43:14;29.60;99.90
14517;DHT22;7344;50.864;4.362;2022-07-09T11:45:50;29.60;99.90
14517;DHT22;7344;50.864;4.362;2022-07-09T11:48:16;29.10;99.90
14517;DHT22;7344;50.864;4.362;2022-07-09T11:50:43;28.70;99.90
14517;DHT22;7344;50.864;4.362;2022-07-09T11:53:25;29.00;99.90
14517;DHT22;7344;50.864;4.362;2022-07-09T11:56:00;29.50;99.90
14517;DHT22;7344;50.864;4.362;2022-07-09T11:58:26;29.20;99.90
14517;DHT22;7344;50.864;4.362;2022-07-09T12:00:51;28.70;99.90
14517;DHT22;7344;50.864;4.362;2022-07-09T12:03:24;28.60;99.90
14517;DHT22;7344;50.864;4.362;2022-07-09T12:05:51;28.70;99.90
14517;DHT22;7344;50.864;4.362;2022-07-09T12:08:26;28.40;99.90
14517;DHT22;7344;50.864;4.362;2022-07-09T12:10:53;27.90;99.90
14517;DHT22;7344;50.864;4.362;2022-07-09T12:13:19;28.00;99.90
14517;DHT22;7344;50.864;4.362;2022-07-09T12:15:44;27.60;1.00
14517;DHT22;7344;50.864;4.362;2022-07-09T12:18:10;27.60;1.00
14517;DHT22;7344;50.864;4.362;2022-07-09T12:20:36;27.50;1.00
14517;DHT22;7344;50.864;4.362;2022-07-09T12:23:02;27.60;1.00
14517;DHT22;7344;50.864;4.362;2022-07-09T12:25:27;27.90;1.00
14517;DHT22;7344;50.864;4.362;2022-07-09T12:27:53;27.60;1.00
14517;DHT22;7344;50.864;4.362;2022-07-09T12:30:19;27.10;1.00
14517;DHT22;7344;50.864;4.362;2022-07-09T12:32:45;27.00;1.00
14517;DHT22;7344;50.864;4.362;2022-07-09T12:35:12;27.00;1.00
14517;DHT22;7344;50.864;4.362;2022-07-09T12:37:38;27.10;1.00
14517;DHT22;7344;50.864;4.362;2022-07-09T12:40:05;26.80;1.00
14517;DHT22;7344;50.864;4.362;2022-07-09T12:42:31;26.40;1.00
14517;DHT22;7344;50.864;4.362;2022-07-09T12:44:57;26.40;1.00
14517;DHT22;7344;50.864;4.362;2022-07-09T12:47:23;26.40;45.30
14517;DHT22;7344;50.864;4.362;2022-07-09T12:49:49;26.60;1.00
14517;DHT22;7344;50.864;4.362;2022-07-09T12:52:14;26.40;1.00
14517;DHT22;7344;50.864;4.362;2022-07-09T12:54:40;26.40;1.00
14517;DHT22;7344;50.864;4.362;2022-07-09T12:57:06;26.60;1.00
14517;DHT22;7344;50.864;4.362;2022-07-09T12:59:32;26.60;1.00
14517;DHT22;7344;50.864;4.362;2022-07-09T13:01:57;26.80;1.00
14517;DHT22;7344;50.864;4.362;2022-07-09T13:04:23;26.80;1.00
14517;DHT22;7344;50.864;4.362;2022-07-09T13:06:49;27.00;1.00
14517;DHT22;7344;50.864;4.362;2022-07-09T13:09:14;27.00;1.00
14517;DHT22;7344;50.864;4.362;2022-07-09T13:11:40;27.20;1.00
14517;DHT22;7344;50.864;4.362;2022-07-09T13:14:06;27.10;1.00
14517;DHT22;7344;50.864;4.362;2022-07-09T13:16:35;26.60;1.00
14517;DHT22;7344;50.864;4.362;2022-07-09T13:19:00;26.30;1.00
14517;DHT22;7344;50.864;4.362;2022-07-09T13:21:26;26.10;1.00
14517;DHT22;7344;50.864;4.362;2022-07-09T13:23:52;26.30;1.00
14517;DHT22;7344;50.864;4.362;2022-07-09T13:26:19;26.20;1.00
14517;DHT22;7344;50.864;4.362;2022-07-09T13:28:44;26.20;1.00
14517;DHT22;7344;50.864;4.362;2022-07-09T13:31:10;26.40;1.00
14517;DHT22;7344;50.864;4.362;2022-07-09T13:33:36;26.20;1.00
14517;DHT22;7344;50.864;4.362;2022-07-09T13:36:03;26.10;1.00
14517;DHT22;7344;50.864;4.362;2022-07-09T13:38:30;26.20;1.00
14517;DHT22;7344;50.864;4.362;2022-07-09T13:40:56;26.40;1.00
14517;DHT22;7344;50.864;4.362;2022-07-09T13:43:22;26.30;1.00
14517;DHT22;7344;50.864;4.362;2022-07-09T13:45:51;26.10;1.00
14517;DHT22;7344;50.864;4.362;2022-07-09T13:48:17;26.10;1.00
14517;DHT22;7344;50.864;4.362;2022-07-09T13:50:42;26.10;1.00
14517;DHT22;7344;50.864;4.362;2022-07-09T13:53:08;26.10;1.00
14517;DHT22;7344;50.864;4.362;2022-07-09T13:55:33;25.90;1.00
14517;DHT22;7344;50.864;4.362;2022-07-09T13:58:00;26.00;1.00
14517;DHT22;7344;50.864;4.362;2022-07-09T14:00:25;26.00;1.00
14517;DHT22;7344;50.864;4.362;2022-07-09T14:02:51;26.00;99.90
14517;DHT22;7344;50.864;4.362;2022-07-09T14:05:17;25.70;99.90
14517;DHT22;7344;50.864;4.362;2022-07-09T14:07:42;25.60;1.00
14517;DHT22;7344;50.864;4.362;2022-07-09T14:10:08;25.80;99.90
14517;DHT22;7344;50.864;4.362;2022-07-09T14:12:34;26.00;99.90
14517;DHT22;7344;50.864;4.362;2022-07-09T14:14:59;26.00;99.90
14517;DHT22;7344;50.864;4.362;2022-07-09T14:17:26;25.70;99.90
14517;DHT22;7344;50.864;4.362;2022-07-09T14:19:52;25.60;99.90
14517;DHT22;7344;50.864;4.362;2022-07-09T14:22:17;25.70;99.90
14517;DHT22;7344;50.864;4.362;2022-07-09T14:24:43;25.50;99.90
14517;DHT22;7344;50.864;4.362;2022-07-09T14:27:09;25.40;1.00
14517;DHT22;7344;50.864;4.362;2022-07-09T14:29:35;25.20;1.00
14517;DHT22;7344;50.864;4.362;2022-07-09T14:32:00;24.90;1.00
14517;DHT22;7344;50.864;4.362;2022-07-09T14:34:26;24.70;1.00
14517;DHT22;7344;50.864;4.362;2022-07-09T14:36:52;24.50;1.00
14517;DHT22;7344;50.864;4.362;2022-07-09T14:39:20;24.50;1.00
14517;DHT22;7344;50.864;4.362;2022-07-09T14:41:47;24.50;1.00
14517;DHT22;7344;50.864;4.362;2022-07-09T14:44:13;24.50;1.00
14517;DHT22;7344;50.864;4.362;2022-07-09T14:46:40;24.60;1.00
14517;DHT22;7344;50.864;4.362;2022-07-09T14:49:06;24.70;1.00
14517;DHT22;7344;50.864;4.362;2022-07-09T14:51:32;24.80;1.00
14517;DHT22;7344;50.864;4.362;2022-07-09T14:53:59;24.80;1.00
14517;DHT22;7344;50.864;4.362;2022-07-09T14:56:25;24.90;99.90
14517;DHT22;7344;50.864;4.362;2022-07-09T14:58:50;24.80;1.00
14517;DHT22;7344;50.864;4.362;2022-07-09T15:01:16;24.60;99.90
14517;DHT22;7344;50.864;4.362;2022-07-09T15:03:42;24.40;1.00
14517;DHT22;7344;50.864;4.362;2022-07-09T15:06:08;24.00;1.00
14517;DHT22;7344;50.864;4.362;2022-07-09T15:08:34;23.80;1.00
14517;DHT22;7344;50.864;4.362;2022-07-09T15:11:00;23.70;1.00
14517;DHT22;7344;50.864;4.362;2022-07-09T15:13:26;23.80;1.00
14517;DHT22;7344;50.864;4.362;2022-07-09T15:15:53;23.90;1.00
14517;DHT22;7344;50.864;4.362;2022-07-09T15:18:19;23.90;1.00
14517;DHT22;7344;50.864;4.362;2022-07-09T15:20:44;24.00;1.00
14517;DHT22;7344;50.864;4.362;2022-07-09T15:23:10;23.90;1.00
14517;DHT22;7344;50.864;4.362;2022-07-09T15:25:36;23.90;1.00
14517;DHT22;7344;50.864;4.362;2022-07-09T15:28:02;23.90;1.00
14517;DHT22;7344;50.864;4.362;2022-07-09T15:30:28;24.00;1.00
14517;DHT22;7344;50.864;4.362;2022-07-09T15:32:54;23.80;1.00
14517;DHT22;7344;50.864;4.362;2022-07-09T15:35:20;23.70;1.00
14517;DHT22;7344;50.864;4.362;2022-07-09T15:37:46;23.60;1.00
14517;DHT22;7344;50.864;4.362;2022-07-09T15:40:11;23.60;1.00
14517;DHT22;7344;50.864;4.362;2022-07-09T15:42:39;23.60;1.00
14517;DHT22;7344;50.864;4.362;2022-07-09T15:45:06;23.70;1.00
14517;DHT22;7344;50.864;4.362;2022-07-09T15:47:32;23.40;1.00
14517;DHT22;7344;50.864;4.362;2022-07-09T15:49:57;23.20;99.90
14517;DHT22;7344;50.864;4.362;2022-07-09T15:52:23;23.30;26.90
14517;DHT22;7344;50.864;4.362;2022-07-09T15:54:49;23.30;1.00
14517;DHT22;7344;50.864;4.362;2022-07-09T15:57:15;23.30;1.00
14517;DHT22;7344;50.864;4.362;2022-07-09T15:59:40;23.20;1.00